FCI weather

Chesterfield County Airport
Richmond, Virginia, United States

Public forecast

Using degrees Fahrenheit for public forecast. Weather courtesy of forecast.io.

Current aviation weather report (METAR) for Chesterfield County Airport

Retrieved 2019/10/19 10:56 UTC (8 minutes ago):

KFCI 191056Z AUTO 31003KT 10SM CLR 02/01 A3010 RMK AO2 SLP206 T00170011 FZRANO

Closest aviation forecast (TAF) to Chesterfield County Airport

Closest forecast is Richmond International Airport, 11.4 nm (21.2 km) ENE. Retrieved 2019/10/19 06:22 UTC (5 hours ago):

TAF KRIC 190520Z 1906/2006 VRB03KT P6SM SKC FM191600 13004KT P6SM BKN250 FM192100 16005KT P6SM BKN080 FM200300 12004KT P6SM BKN070